sensor_id;sensor_type;location;lat;lon;timestamp;pressure;altitude;pressure_sealevel;temperature
69435;BMP180;56625;54.322;18.582;2022-07-15T00:00:17;100398.80;;;14.92
69435;BMP180;56625;54.322;18.582;2022-07-15T00:03:01;100394.00;;;14.90
69435;BMP180;56625;54.322;18.582;2022-07-15T00:05:30;100393.80;;;14.90
69435;BMP180;56625;54.322;18.582;2022-07-15T00:07:58;100392.60;;;14.90
69435;BMP180;56625;54.322;18.582;2022-07-15T00:10:29;100394.80;;;14.90
69435;BMP180;56625;54.322;18.582;2022-07-15T00:12:59;100388.60;;;14.90
69435;BMP180;56625;54.322;18.582;2022-07-15T00:15:31;100383.20;;;14.90
69435;BMP180;56625;54.322;18.582;2022-07-15T00:18:00;100385.80;;;14.90
69435;BMP180;56625;54.322;18.582;2022-07-15T00:20:32;100395.20;;;14.90
69435;BMP180;56625;54.322;18.582;2022-07-15T00:23:05;100387.80;;;14.88
69435;BMP180;56625;54.322;18.582;2022-07-15T00:25:34;100388.40;;;14.82
69435;BMP180;56625;54.322;18.582;2022-07-15T00:28:05;100390.80;;;14.80
69435;BMP180;56625;54.322;18.582;2022-07-15T00:30:40;100391.00;;;14.80
69435;BMP180;56625;54.322;18.582;2022-07-15T00:33:09;100384.20;;;14.80
69435;BMP180;56625;54.322;18.582;2022-07-15T00:35:39;100387.00;;;14.80
69435;BMP180;56625;54.322;18.582;2022-07-15T00:38:09;100387.40;;;14.80
69435;BMP180;56625;54.322;18.582;2022-07-15T00:40:48;100389.40;;;14.70
69435;BMP180;56625;54.322;18.582;2022-07-15T00:43:17;100395.00;;;14.70
69435;BMP180;56625;54.322;18.582;2022-07-15T00:45:46;100389.80;;;14.60
69435;BMP180;56625;54.322;18.582;2022-07-15T00:48:15;100397.20;;;14.60
69435;BMP180;56625;54.322;18.582;2022-07-15T00:50:47;100396.60;;;14.60
69435;BMP180;56625;54.322;18.582;2022-07-15T00:53:20;100400.20;;;14.60
69435;BMP180;56625;54.322;18.582;2022-07-15T00:55:52;100396.40;;;14.50
69435;BMP180;56625;54.322;18.582;2022-07-15T00:58:27;100400.20;;;14.50
69435;BMP180;56625;54.322;18.582;2022-07-15T01:00:56;100400.80;;;14.46
69435;BMP180;56625;54.322;18.582;2022-07-15T01:03:27;100401.00;;;14.40
69435;BMP180;56625;54.322;18.582;2022-07-15T01:05:58;100403.00;;;14.40
69435;BMP180;56625;54.322;18.582;2022-07-15T01:08:26;100403.40;;;14.40
69435;BMP180;56625;54.322;18.582;2022-07-15T01:10:54;100398.00;;;14.40
69435;BMP180;56625;54.322;18.582;2022-07-15T01:13:22;100401.40;;;14.30
69435;BMP180;56625;54.322;18.582;2022-07-15T01:15:50;100408.20;;;14.30
69435;BMP180;56625;54.322;18.582;2022-07-15T01:18:18;100407.00;;;14.30
69435;BMP180;56625;54.322;18.582;2022-07-15T01:20:46;100404.00;;;14.28
69435;BMP180;56625;54.322;18.582;2022-07-15T01:23:16;100406.40;;;14.20
69435;BMP180;56625;54.322;18.582;2022-07-15T01:25:44;100407.60;;;14.20
69435;BMP180;56625;54.322;18.582;2022-07-15T01:28:13;100407.40;;;14.20
69435;BMP180;56625;54.322;18.582;2022-07-15T01:30:41;100407.40;;;14.20
69435;BMP180;56625;54.322;18.582;2022-07-15T01:33:08;100405.20;;;14.18
69435;BMP180;56625;54.322;18.582;2022-07-15T01:35:36;100413.00;;;14.20
69435;BMP180;56625;54.322;18.582;2022-07-15T01:38:04;100405.60;;;14.10
69435;BMP180;56625;54.322;18.582;2022-07-15T01:40:32;100406.40;;;14.10
69435;BMP180;56625;54.322;18.582;2022-07-15T01:43:00;100405.40;;;14.10
69435;BMP180;56625;54.322;18.582;2022-07-15T01:45:28;100406.60;;;14.00
69435;BMP180;56625;54.322;18.582;2022-07-15T01:47:55;100407.60;;;14.00
69435;BMP180;56625;54.322;18.582;2022-07-15T01:50:23;100406.60;;;14.00
69435;BMP180;56625;54.322;18.582;2022-07-15T01:52:51;100399.00;;;14.00
69435;BMP180;56625;54.322;18.582;2022-07-15T01:55:19;100397.00;;;13.92
69435;BMP180;56625;54.322;18.582;2022-07-15T01:57:47;100392.40;;;13.90
69435;BMP180;56625;54.322;18.582;2022-07-15T02:00:15;100391.00;;;13.90
69435;BMP180;56625;54.322;18.582;2022-07-15T02:02:45;100394.80;;;13.90
69435;BMP180;56625;54.322;18.582;2022-07-15T02:05:13;100386.80;;;13.90
69435;BMP180;56625;54.322;18.582;2022-07-15T02:07:40;100390.60;;;13.80
69435;BMP180;56625;54.322;18.582;2022-07-15T02:10:08;100388.20;;;13.80
69435;BMP180;56625;54.322;18.582;2022-07-15T02:12:36;100387.60;;;13.76
69435;BMP180;56625;54.322;18.582;2022-07-15T02:15:05;100385.60;;;13.70
69435;BMP180;56625;54.322;18.582;2022-07-15T02:17:33;100388.20;;;13.70
69435;BMP180;56625;54.322;18.582;2022-07-15T02:20:01;100385.80;;;13.60
69435;BMP180;56625;54.322;18.582;2022-07-15T02:22:28;100389.80;;;13.60
69435;BMP180;56625;54.322;18.582;2022-07-15T02:24:56;100387.20;;;13.60
69435;BMP180;56625;54.322;18.582;2022-07-15T02:27:24;100393.00;;;13.60
69435;BMP180;56625;54.322;18.582;2022-07-15T02:29:51;100389.00;;;13.50
69435;BMP180;56625;54.322;18.582;2022-07-15T02:32:19;100388.80;;;13.50
69435;BMP180;56625;54.322;18.582;2022-07-15T02:34:47;100392.00;;;13.50
69435;BMP180;56625;54.322;18.582;2022-07-15T02:37:15;100396.80;;;13.40
69435;BMP180;56625;54.322;18.582;2022-07-15T02:39:48;100397.80;;;13.40
69435;BMP180;56625;54.322;18.582;2022-07-15T02:42:17;100387.40;;;13.40
69435;BMP180;56625;54.322;18.582;2022-07-15T02:44:45;100392.60;;;13.40
69435;BMP180;56625;54.322;18.582;2022-07-15T02:47:12;100392.40;;;13.40
69435;BMP180;56625;54.322;18.582;2022-07-15T02:49:40;100398.60;;;13.40
69435;BMP180;56625;54.322;18.582;2022-07-15T02:52:08;100393.80;;;13.36
69435;BMP180;56625;54.322;18.582;2022-07-15T02:54:36;100395.20;;;13.30
69435;BMP180;56625;54.322;18.582;2022-07-15T02:57:03;100392.80;;;13.30
69435;BMP180;56625;54.322;18.582;2022-07-15T02:59:31;100393.20;;;13.32
69435;BMP180;56625;54.322;18.582;2022-07-15T03:01:59;100393.80;;;13.30
69435;BMP180;56625;54.322;18.582;2022-07-15T03:04:27;100395.60;;;13.34
69435;BMP180;56625;54.322;18.582;2022-07-15T03:06:55;100398.00;;;13.30
69435;BMP180;56625;54.322;18.582;2022-07-15T03:09:23;100400.60;;;13.30
69435;BMP180;56625;54.322;18.582;2022-07-15T03:11:51;100402.80;;;13.30
69435;BMP180;56625;54.322;18.582;2022-07-15T03:14:18;100404.40;;;13.30
69435;BMP180;56625;54.322;18.582;2022-07-15T03:16:47;100406.20;;;13.30
69435;BMP180;56625;54.322;18.582;2022-07-15T03:19:15;100407.60;;;13.30
69435;BMP180;56625;54.322;18.582;2022-07-15T03:21:43;100413.80;;;13.30
69435;BMP180;56625;54.322;18.582;2022-07-15T03:24:10;100415.80;;;13.30
69435;BMP180;56625;54.322;18.582;2022-07-15T03:26:41;100411.00;;;13.30
69435;BMP180;56625;54.322;18.582;2022-07-15T03:29:09;100412.40;;;13.30
69435;BMP180;56625;54.322;18.582;2022-07-15T03:31:37;100411.20;;;13.30
69435;BMP180;56625;54.322;18.582;2022-07-15T03:34:05;100413.80;;;13.30
69435;BMP180;56625;54.322;18.582;2022-07-15T03:36:33;100411.80;;;13.40
69435;BMP180;56625;54.322;18.582;2022-07-15T03:39:01;100408.80;;;13.80
69435;BMP180;56625;54.322;18.582;2022-07-15T03:41:29;100399.00;;;14.20
69435;BMP180;56625;54.322;18.582;2022-07-15T03:43:58;100401.00;;;14.58
69435;BMP180;56625;54.322;18.582;2022-07-15T03:46:27;100400.20;;;14.80
69435;BMP180;56625;54.322;18.582;2022-07-15T03:48:56;100398.20;;;14.80
69435;BMP180;56625;54.322;18.582;2022-07-15T03:51:24;100389.60;;;15.00
69435;BMP180;56625;54.322;18.582;2022-07-15T03:54:02;100388.80;;;15.20
69435;BMP180;56625;54.322;18.582;2022-07-15T03:56:31;100386.00;;;15.30
69435;BMP180;56625;54.322;18.582;2022-07-15T03:58:59;100380.60;;;15.56
69435;BMP180;56625;54.322;18.582;2022-07-15T04:01:27;100382.00;;;15.72
69435;BMP180;56625;54.322;18.582;2022-07-15T04:03:56;100384.60;;;15.76
69435;BMP180;56625;54.322;18.582;2022-07-15T04:06:24;100381.80;;;15.90
69435;BMP180;56625;54.322;18.582;2022-07-15T04:08:52;100386.20;;;16.00
69435;BMP180;56625;54.322;18.582;2022-07-15T04:11:20;100381.40;;;15.98
69435;BMP180;56625;54.322;18.582;2022-07-15T04:13:48;100380.60;;;16.00
69435;BMP180;56625;54.322;18.582;2022-07-15T04:16:16;100378.60;;;16.00
69435;BMP180;56625;54.322;18.582;2022-07-15T04:18:44;100384.80;;;15.96
69435;BMP180;56625;54.322;18.582;2022-07-15T04:21:12;100390.60;;;15.74
69435;BMP180;56625;54.322;18.582;2022-07-15T04:23:41;100393.00;;;15.40
69435;BMP180;56625;54.322;18.582;2022-07-15T04:26:09;100396.40;;;15.20
69435;BMP180;56625;54.322;18.582;2022-07-15T04:28:37;100405.20;;;15.10
69435;BMP180;56625;54.322;18.582;2022-07-15T04:31:05;100405.20;;;15.06
69435;BMP180;56625;54.322;18.582;2022-07-15T04:33:33;100410.60;;;14.90
69435;BMP180;56625;54.322;18.582;2022-07-15T04:36:00;100407.20;;;14.80
69435;BMP180;56625;54.322;18.582;2022-07-15T04:38:30;100415.80;;;14.74
69435;BMP180;56625;54.322;18.582;2022-07-15T04:40:58;100412.40;;;14.70
69435;BMP180;56625;54.322;18.582;2022-07-15T04:43:28;100410.40;;;14.70
69435;BMP180;56625;54.322;18.582;2022-07-15T04:45:56;100415.60;;;14.70
69435;BMP180;56625;54.322;18.582;2022-07-15T04:48:26;100416.00;;;14.70
69435;BMP180;56625;54.322;18.582;2022-07-15T04:51:13;100421.40;;;14.70
69435;BMP180;56625;54.322;18.582;2022-07-15T04:53:42;100415.60;;;14.78
69435;BMP180;56625;54.322;18.582;2022-07-15T04:56:10;100425.00;;;14.80
69435;BMP180;56625;54.322;18.582;2022-07-15T04:58:39;100422.80;;;14.90
69435;BMP180;56625;54.322;18.582;2022-07-15T05:01:07;100429.00;;;14.86
69435;BMP180;56625;54.322;18.582;2022-07-15T05:03:35;100431.80;;;14.80
69435;BMP180;56625;54.322;18.582;2022-07-15T05:06:03;100427.00;;;14.90
69435;BMP180;56625;54.322;18.582;2022-07-15T05:08:31;100431.20;;;15.10
69435;BMP180;56625;54.322;18.582;2022-07-15T05:10:59;100425.00;;;15.20
69435;BMP180;56625;54.322;18.582;2022-07-15T05:13:27;100426.60;;;15.30
69435;BMP180;56625;54.322;18.582;2022-07-15T05:15:55;100425.80;;;15.40
69435;BMP180;56625;54.322;18.582;2022-07-15T05:18:23;100422.60;;;15.50
69435;BMP180;56625;54.322;18.582;2022-07-15T05:20:51;100422.40;;;15.70
69435;BMP180;56625;54.322;18.582;2022-07-15T05:23:19;100421.40;;;15.90
69435;BMP180;56625;54.322;18.582;2022-07-15T05:25:47;100422.00;;;15.90
69435;BMP180;56625;54.322;18.582;2022-07-15T05:28:15;100424.80;;;15.90
69435;BMP180;56625;54.322;18.582;2022-07-15T05:30:43;100428.20;;;15.90
69435;BMP180;56625;54.322;18.582;2022-07-15T05:33:11;100435.20;;;15.80
69435;BMP180;56625;54.322;18.582;2022-07-15T05:35:40;100431.00;;;15.90
69435;BMP180;56625;54.322;18.582;2022-07-15T05:38:07;100423.40;;;16.00
69435;BMP180;56625;54.322;18.582;2022-07-15T05:40:35;100426.40;;;16.00
69435;BMP180;56625;54.322;18.582;2022-07-15T05:43:03;100423.20;;;16.10
69435;BMP180;56625;54.322;18.582;2022-07-15T05:45:31;100428.20;;;16.26
69435;BMP180;56625;54.322;18.582;2022-07-15T05:47:59;100423.60;;;16.40
69435;BMP180;56625;54.322;18.582;2022-07-15T05:50:27;100432.20;;;16.48
69435;BMP180;56625;54.322;18.582;2022-07-15T05:52:55;100425.00;;;16.50
69435;BMP180;56625;54.322;18.582;2022-07-15T05:55:23;100433.20;;;16.50
69435;BMP180;56625;54.322;18.582;2022-07-15T05:57:51;100433.20;;;16.50
69435;BMP180;56625;54.322;18.582;2022-07-15T06:00:19;100449.80;;;16.60
69435;BMP180;56625;54.322;18.582;2022-07-15T06:02:47;100449.40;;;16.62
69435;BMP180;56625;54.322;18.582;2022-07-15T06:05:15;100450.80;;;16.76
69435;BMP180;56625;54.322;18.582;2022-07-15T06:07:42;100445.80;;;16.70
69435;BMP180;56625;54.322;18.582;2022-07-15T06:10:10;100448.40;;;16.70
69435;BMP180;56625;54.322;18.582;2022-07-15T06:12:38;100448.80;;;16.60
69435;BMP180;56625;54.322;18.582;2022-07-15T06:15:07;100452.00;;;16.60
69435;BMP180;56625;54.322;18.582;2022-07-15T06:17:36;100448.00;;;16.60
69435;BMP180;56625;54.322;18.582;2022-07-15T06:20:06;100450.00;;;16.50
69435;BMP180;56625;54.322;18.582;2022-07-15T06:22:39;100455.20;;;16.50
69435;BMP180;56625;54.322;18.582;2022-07-15T06:25:07;100467.00;;;16.40
69435;BMP180;56625;54.322;18.582;2022-07-15T06:27:36;100466.40;;;16.20
69435;BMP180;56625;54.322;18.582;2022-07-15T06:30:05;100467.40;;;16.20
69435;BMP180;56625;54.322;18.582;2022-07-15T06:32:34;100473.60;;;16.22
69435;BMP180;56625;54.322;18.582;2022-07-15T06:35:03;100473.00;;;16.10
69435;BMP180;56625;54.322;18.582;2022-07-15T06:37:32;100477.00;;;15.94
69435;BMP180;56625;54.322;18.582;2022-07-15T06:40:01;100487.40;;;15.70
69435;BMP180;56625;54.322;18.582;2022-07-15T06:42:29;100488.20;;;15.50
69435;BMP180;56625;54.322;18.582;2022-07-15T06:44:57;100490.40;;;15.38
69435;BMP180;56625;54.322;18.582;2022-07-15T06:47:25;100493.00;;;15.30
69435;BMP180;56625;54.322;18.582;2022-07-15T06:49:52;100491.20;;;15.20
69435;BMP180;56625;54.322;18.582;2022-07-15T06:52:20;100488.60;;;15.14
69435;BMP180;56625;54.322;18.582;2022-07-15T06:54:48;100491.40;;;15.00
69435;BMP180;56625;54.322;18.582;2022-07-15T06:57:16;100490.20;;;15.00
69435;BMP180;56625;54.322;18.582;2022-07-15T06:59:47;100489.20;;;15.20
69435;BMP180;56625;54.322;18.582;2022-07-15T07:02:14;100490.80;;;15.40
69435;BMP180;56625;54.322;18.582;2022-07-15T07:04:42;100483.40;;;15.62
69435;BMP180;56625;54.322;18.582;2022-07-15T07:07:11;100482.40;;;15.90
69435;BMP180;56625;54.322;18.582;2022-07-15T07:09:38;100485.20;;;16.04
69435;BMP180;56625;54.322;18.582;2022-07-15T07:12:07;100480.60;;;16.20
69435;BMP180;56625;54.322;18.582;2022-07-15T07:14:35;100478.20;;;16.42
69435;BMP180;56625;54.322;18.582;2022-07-15T07:17:02;100472.80;;;16.58
69435;BMP180;56625;54.322;18.582;2022-07-15T07:19:30;100477.00;;;16.60
69435;BMP180;56625;54.322;18.582;2022-07-15T07:21:58;100476.60;;;16.74
69435;BMP180;56625;54.322;18.582;2022-07-15T07:24:26;100470.60;;;16.90
69435;BMP180;56625;54.322;18.582;2022-07-15T07:26:54;100467.80;;;17.02
69435;BMP180;56625;54.322;18.582;2022-07-15T07:29:21;100468.60;;;17.22
69435;BMP180;56625;54.322;18.582;2022-07-15T07:31:54;100468.40;;;17.40
69435;BMP180;56625;54.322;18.582;2022-07-15T07:34:21;100472.00;;;17.40
69435;BMP180;56625;54.322;18.582;2022-07-15T07:36:50;100471.40;;;17.50
69435;BMP180;56625;54.322;18.582;2022-07-15T07:39:17;100482.80;;;17.60
69435;BMP180;56625;54.322;18.582;2022-07-15T07:41:45;100480.40;;;17.70
69435;BMP180;56625;54.322;18.582;2022-07-15T07:44:15;100479.00;;;17.70
69435;BMP180;56625;54.322;18.582;2022-07-15T07:46:42;100487.00;;;17.90
69435;BMP180;56625;54.322;18.582;2022-07-15T07:49:14;100501.60;;;17.98
69435;BMP180;56625;54.322;18.582;2022-07-15T07:52:04;100504.80;;;17.62
69435;BMP180;56625;54.322;18.582;2022-07-15T07:54:32;100507.40;;;17.20
69435;BMP180;56625;54.322;18.582;2022-07-15T07:57:07;100509.00;;;17.22
69435;BMP180;56625;54.322;18.582;2022-07-15T07:59:35;100515.20;;;17.20
69435;BMP180;56625;54.322;18.582;2022-07-15T08:02:04;100512.40;;;17.20
69435;BMP180;56625;54.322;18.582;2022-07-15T08:04:32;100515.80;;;17.30
69435;BMP180;56625;54.322;18.582;2022-07-15T08:07:00;100520.40;;;17.40
69435;BMP180;56625;54.322;18.582;2022-07-15T08:09:28;100529.80;;;17.50
69435;BMP180;56625;54.322;18.582;2022-07-15T08:11:56;100533.20;;;17.30
69435;BMP180;56625;54.322;18.582;2022-07-15T08:14:23;100538.60;;;17.20
69435;BMP180;56625;54.322;18.582;2022-07-15T08:16:52;100545.60;;;17.10
69435;BMP180;56625;54.322;18.582;2022-07-15T08:19:20;100540.20;;;17.02
69435;BMP180;56625;54.322;18.582;2022-07-15T08:21:48;100544.00;;;17.08
69435;BMP180;56625;54.322;18.582;2022-07-15T08:24:17;100548.00;;;17.10
69435;BMP180;56625;54.322;18.582;2022-07-15T08:26:44;100549.80;;;17.20
69435;BMP180;56625;54.322;18.582;2022-07-15T08:29:12;100555.40;;;17.10
69435;BMP180;56625;54.322;18.582;2022-07-15T08:31:40;100561.40;;;16.92
69435;BMP180;56625;54.322;18.582;2022-07-15T08:34:08;100564.60;;;16.80
69435;BMP180;56625;54.322;18.582;2022-07-15T08:36:37;100566.80;;;16.70
69435;BMP180;56625;54.322;18.582;2022-07-15T08:39:05;100562.40;;;16.70
69435;BMP180;56625;54.322;18.582;2022-07-15T08:41:35;100569.60;;;16.70
69435;BMP180;56625;54.322;18.582;2022-07-15T08:44:05;100568.60;;;16.64
69435;BMP180;56625;54.322;18.582;2022-07-15T08:46:35;100568.20;;;16.70
69435;BMP180;56625;54.322;18.582;2022-07-15T08:49:12;100570.20;;;16.70
69435;BMP180;56625;54.322;18.582;2022-07-15T08:51:47;100569.40;;;16.90
69435;BMP180;56625;54.322;18.582;2022-07-15T08:54:15;100575.20;;;17.00
69435;BMP180;56625;54.322;18.582;2022-07-15T08:56:44;100579.00;;;17.10
69435;BMP180;56625;54.322;18.582;2022-07-15T08:59:13;100579.00;;;17.20
69435;BMP180;56625;54.322;18.582;2022-07-15T09:01:47;100593.40;;;17.10
69435;BMP180;56625;54.322;18.582;2022-07-15T09:04:17;100602.00;;;16.82
69435;BMP180;56625;54.322;18.582;2022-07-15T09:06:48;100609.40;;;16.50
69435;BMP180;56625;54.322;18.582;2022-07-15T09:09:32;100615.20;;;16.32
69435;BMP180;56625;54.322;18.582;2022-07-15T09:12:07;100611.00;;;16.20
69435;BMP180;56625;54.322;18.582;2022-07-15T09:14:44;100610.20;;;16.20
69435;BMP180;56625;54.322;18.582;2022-07-15T09:20:09;100602.60;;;16.58
69435;BMP180;56625;54.322;18.582;2022-07-15T09:22:50;100601.00;;;16.80
69435;BMP180;56625;54.322;18.582;2022-07-15T09:25:19;100594.20;;;17.04
69435;BMP180;56625;54.322;18.582;2022-07-15T09:27:48;100595.40;;;17.02
69435;BMP180;56625;54.322;18.582;2022-07-15T09:30:24;100589.60;;;17.20
69435;BMP180;56625;54.322;18.582;2022-07-15T09:33:23;100588.40;;;17.70
69435;BMP180;56625;54.322;18.582;2022-07-15T09:36:20;100578.80;;;17.78
69435;BMP180;56625;54.322;18.582;2022-07-15T09:39:00;100577.60;;;17.80
69435;BMP180;56625;54.322;18.582;2022-07-15T09:41:41;100573.00;;;17.76
69435;BMP180;56625;54.322;18.582;2022-07-15T09:44:21;100579.00;;;17.60
69435;BMP180;56625;54.322;18.582;2022-07-15T09:46:51;100582.60;;;17.50
69435;BMP180;56625;54.322;18.582;2022-07-15T09:52:13;100589.20;;;17.30
69435;BMP180;56625;54.322;18.582;2022-07-15T09:54:46;100600.40;;;17.20
69435;BMP180;56625;54.322;18.582;2022-07-15T09:57:18;100607.40;;;17.10
69435;BMP180;56625;54.322;18.582;2022-07-15T09:59:50;100604.60;;;17.00
69435;BMP180;56625;54.322;18.582;2022-07-15T10:02:23;100608.00;;;17.10
69435;BMP180;56625;54.322;18.582;2022-07-15T10:04:51;100605.60;;;17.22
69435;BMP180;56625;54.322;18.582;2022-07-15T10:07:25;100614.20;;;17.54
69435;BMP180;56625;54.322;18.582;2022-07-15T10:09:58;100611.00;;;17.62
69435;BMP180;56625;54.322;18.582;2022-07-15T10:12:54;100613.20;;;17.60
69435;BMP180;56625;54.322;18.582;2022-07-15T10:21:45;100617.60;;;18.04
69435;BMP180;56625;54.322;18.582;2022-07-15T10:30:35;100621.40;;;17.48
69435;BMP180;56625;54.322;18.582;2022-07-15T10:33:10;100624.60;;;17.40
69435;BMP180;56625;54.322;18.582;2022-07-15T10:36:03;100617.60;;;17.70
69435;BMP180;56625;54.322;18.582;2022-07-15T10:38:36;100614.60;;;18.10
69435;BMP180;56625;54.322;18.582;2022-07-15T10:41:13;100617.20;;;18.36
69435;BMP180;56625;54.322;18.582;2022-07-15T10:43:52;100604.00;;;18.60
69435;BMP180;56625;54.322;18.582;2022-07-15T10:46:28;100609.00;;;18.70
69435;BMP180;56625;54.322;18.582;2022-07-15T10:54:08;100611.80;;;18.80
69435;BMP180;56625;54.322;18.582;2022-07-15T10:56:44;100609.40;;;18.94
69435;BMP180;56625;54.322;18.582;2022-07-15T11:01:45;100610.00;;;19.30
69435;BMP180;56625;54.322;18.582;2022-07-15T11:04:22;100609.80;;;19.34
69435;BMP180;56625;54.322;18.582;2022-07-15T11:09:50;100623.40;;;19.12
69435;BMP180;56625;54.322;18.582;2022-07-15T11:15:04;100619.80;;;18.90
69435;BMP180;56625;54.322;18.582;2022-07-15T11:20:19;100648.60;;;18.02
69435;BMP180;56625;54.322;18.582;2022-07-15T11:22:53;100668.00;;;17.50
69435;BMP180;56625;54.322;18.582;2022-07-15T11:25:32;100665.80;;;17.28
69435;BMP180;56625;54.322;18.582;2022-07-15T11:28:05;100666.00;;;17.08
69435;BMP180;56625;54.322;18.582;2022-07-15T11:30:44;100659.60;;;17.10
69435;BMP180;56625;54.322;18.582;2022-07-15T11:33:15;100665.80;;;17.18
69435;BMP180;56625;54.322;18.582;2022-07-15T11:35:48;100664.60;;;17.28
69435;BMP180;56625;54.322;18.582;2022-07-15T11:38:20;100665.00;;;17.60
69435;BMP180;56625;54.322;18.582;2022-07-15T11:40:55;100655.60;;;17.86
69435;BMP180;56625;54.322;18.582;2022-07-15T11:44:07;100658.60;;;18.10
69435;BMP180;56625;54.322;18.582;2022-07-15T11:46:56;100649.60;;;18.40
69435;BMP180;56625;54.322;18.582;2022-07-15T11:49:30;100647.60;;;18.60
69435;BMP180;56625;54.322;18.582;2022-07-15T11:52:00;100650.60;;;18.80
69435;BMP180;56625;54.322;18.582;2022-07-15T11:54:29;100652.60;;;18.70
69435;BMP180;56625;54.322;18.582;2022-07-15T11:57:00;100660.60;;;18.30
69435;BMP180;56625;54.322;18.582;2022-07-15T11:59:29;100665.60;;;18.10
69435;BMP180;56625;54.322;18.582;2022-07-15T12:02:09;100672.00;;;17.90
69435;BMP180;56625;54.322;18.582;2022-07-15T12:04:40;100673.20;;;17.80
69435;BMP180;56625;54.322;18.582;2022-07-15T12:07:10;100674.20;;;18.00
69435;BMP180;56625;54.322;18.582;2022-07-15T12:09:55;100669.40;;;18.32
69435;BMP180;56625;54.322;18.582;2022-07-15T12:12:23;100663.60;;;18.50
69435;BMP180;56625;54.322;18.582;2022-07-15T12:14:51;100666.60;;;18.64
69435;BMP180;56625;54.322;18.582;2022-07-15T12:17:19;100665.80;;;18.80
69435;BMP180;56625;54.322;18.582;2022-07-15T12:19:51;100662.60;;;18.94
69435;BMP180;56625;54.322;18.582;2022-07-15T12:22:19;100664.40;;;19.10
69435;BMP180;56625;54.322;18.582;2022-07-15T12:24:50;100661.00;;;19.30
69435;BMP180;56625;54.322;18.582;2022-07-15T12:27:33;100660.80;;;19.44
69435;BMP180;56625;54.322;18.582;2022-07-15T12:30:07;100656.20;;;19.60
69435;BMP180;56625;54.322;18.582;2022-07-15T12:32:38;100657.60;;;19.40
69435;BMP180;56625;54.322;18.582;2022-07-15T12:35:10;100659.20;;;19.30
69435;BMP180;56625;54.322;18.582;2022-07-15T12:38:31;100654.00;;;19.48
69435;BMP180;56625;54.322;18.582;2022-07-15T12:41:08;100655.80;;;19.60
69435;BMP180;56625;54.322;18.582;2022-07-15T12:43:54;100652.80;;;19.70
69435;BMP180;56625;54.322;18.582;2022-07-15T12:46:57;100650.40;;;19.90
69435;BMP180;56625;54.322;18.582;2022-07-15T12:52:37;100649.80;;;20.00
69435;BMP180;56625;54.322;18.582;2022-07-15T12:55:21;100656.80;;;19.70
69435;BMP180;56625;54.322;18.582;2022-07-15T12:57:51;100654.20;;;19.80
69435;BMP180;56625;54.322;18.582;2022-07-15T13:00:23;100666.00;;;19.70
69435;BMP180;56625;54.322;18.582;2022-07-15T13:03:06;100664.00;;;19.60
69435;BMP180;56625;54.322;18.582;2022-07-15T13:05:37;100663.20;;;19.40
69435;BMP180;56625;54.322;18.582;2022-07-15T13:08:09;100657.60;;;19.68
69435;BMP180;56625;54.322;18.582;2022-07-15T13:10:38;100652.60;;;19.96
69435;BMP180;56625;54.322;18.582;2022-07-15T13:13:10;100662.40;;;19.94
69435;BMP180;56625;54.322;18.582;2022-07-15T13:15:40;100672.60;;;19.54
69435;BMP180;56625;54.322;18.582;2022-07-15T13:18:08;100677.00;;;19.20
69435;BMP180;56625;54.322;18.582;2022-07-15T13:20:37;100678.60;;;19.10
69435;BMP180;56625;54.322;18.582;2022-07-15T13:23:06;100682.20;;;19.20
69435;BMP180;56625;54.322;18.582;2022-07-15T13:25:34;100679.80;;;19.60
69435;BMP180;56625;54.322;18.582;2022-07-15T13:28:05;100678.00;;;19.80
69435;BMP180;56625;54.322;18.582;2022-07-15T13:30:34;100678.60;;;19.72
69435;BMP180;56625;54.322;18.582;2022-07-15T13:33:04;100688.20;;;19.60
69435;BMP180;56625;54.322;18.582;2022-07-15T13:35:33;100689.00;;;19.44
69435;BMP180;56625;54.322;18.582;2022-07-15T13:38:02;100690.20;;;19.40
69435;BMP180;56625;54.322;18.582;2022-07-15T13:40:31;100687.00;;;19.40
69435;BMP180;56625;54.322;18.582;2022-07-15T13:42:58;100695.80;;;19.30
69435;BMP180;56625;54.322;18.582;2022-07-15T13:45:27;100692.80;;;19.20
69435;BMP180;56625;54.322;18.582;2022-07-15T13:47:55;100698.80;;;19.36
69435;BMP180;56625;54.322;18.582;2022-07-15T13:50:23;100694.40;;;19.60
69435;BMP180;56625;54.322;18.582;2022-07-15T13:53:09;100702.40;;;19.90
69435;BMP180;56625;54.322;18.582;2022-07-15T13:55:37;100697.20;;;20.00
69435;BMP180;56625;54.322;18.582;2022-07-15T13:58:10;100692.60;;;20.00
69435;BMP180;56625;54.322;18.582;2022-07-15T14:00:38;100699.80;;;19.70
69435;BMP180;56625;54.322;18.582;2022-07-15T14:03:10;100705.80;;;19.50
69435;BMP180;56625;54.322;18.582;2022-07-15T14:05:38;100709.20;;;19.50
69435;BMP180;56625;54.322;18.582;2022-07-15T14:08:06;100702.80;;;19.40
69435;BMP180;56625;54.322;18.582;2022-07-15T14:10:34;100700.80;;;19.50
69435;BMP180;56625;54.322;18.582;2022-07-15T14:13:02;100695.80;;;19.52
69435;BMP180;56625;54.322;18.582;2022-07-15T14:15:30;100699.20;;;19.70
69435;BMP180;56625;54.322;18.582;2022-07-15T14:18:06;100697.60;;;19.80
69435;BMP180;56625;54.322;18.582;2022-07-15T14:20:35;100702.80;;;19.70
69435;BMP180;56625;54.322;18.582;2022-07-15T14:23:04;100698.00;;;19.60
69435;BMP180;56625;54.322;18.582;2022-07-15T14:25:32;100703.60;;;19.80
69435;BMP180;56625;54.322;18.582;2022-07-15T14:27:59;100700.40;;;19.90
69435;BMP180;56625;54.322;18.582;2022-07-15T14:30:27;100701.20;;;19.72
69435;BMP180;56625;54.322;18.582;2022-07-15T14:32:55;100698.40;;;19.72
69435;BMP180;56625;54.322;18.582;2022-07-15T14:35:24;100698.80;;;19.70
69435;BMP180;56625;54.322;18.582;2022-07-15T14:37:52;100704.00;;;19.80
69435;BMP180;56625;54.322;18.582;2022-07-15T14:40:19;100704.80;;;19.80